Terminal Aerodrome Forecast
Issued by NWS Spokane, WA

Home | Current Version | Previous Version | Text Only | Print | Product List | Glossary On
Versions: 1 2 3 4 5 6 7 8 9 10 11 12 13 14 15 16 17 18 19 20 21 22 23 24 25 26 27 28
000
FTUS46 KOTX 300008 AAA
TAFGEG
TAF AMD
KGEG 300008Z 3000/3024 19007KT P6SM VCSH SCT060 BKN200
     FM300800 15006KT P6SM TSRA BKN080CB BKN120
     FM301500 15006KT P6SM VCTS BKN080CB BKN120
     FM301800 15007KT P6SM SCT100 SCT200
     FM302200 20010G19KT P6SM VCTS BKN070CB BKN120=

USA.gov is the U.S. government's official web portal to all federal, state and local government web resources and services.